Terminal Aerodrome Forecast
Issued by NWS

Home | Current Version | Previous Version | Text Only | Print | Product List | Glossary On
Versions: 1 2 3 4 5 6 7 8 9 10 11 12 13 14
431
FTUS44 KEPZ 272320
TAFTCS
TAF
KTCS 272320Z 2800/2824 19015G25KT P6SM FEW080 FEW200
     FM280300 25010KT P6SM SCT080 BKN120 BKN250
     FM281500 25020G28KT P6SM VCSH SCT060 SCT090=

USA.gov is the U.S. government's official web portal to all federal, state and local government web resources and services.